Mont Saint Michel — FNMT — position and weather

sailwx.info

Track history (hours):
 
Tides and Currents Weather Stations Pressure Air Temp Water Temp Dewpoint Dewpoint Depression Visibility Wind Speed Wind Dir Waves Ship Positions

Mont Saint Michel

Last reported at 2014-Oct-20 22:33 UTC. Time now 2014-Oct-20 22:50 UTC.
Position N 49°34' W 000°20'.

Length 173 m; beam 29 m.

Type: Ship. MMSI: 227023100.

Date/timePositionNaut miles runAvg speedWind from/ knotsBaromVisibWave heightAir tempDewpointWater temp
2014-Oct-20 22:33N 49°34' W 000°20'1111.2
2014-Oct-20 21:34N 49°23' W 000°15'6 5.6
2014-Oct-20 20:33N 49°17' W 000°15'0 0.0
2014-Oct-20 19:33N 49°17' W 000°15'0 0.0
2014-Oct-20 18:34N 49°17' W 000°15'0 0.0
2014-Oct-20 17:33N 49°17' W 000°15'0 0.0
2014-Oct-20 16:33N 49°17' W 000°15'0 0.0
2014-Oct-20 15:33N 49°17' W 000°15'0 0.0
2014-Oct-20 14:34N 49°17' W 000°15'0 0.0
2014-Oct-20 13:33N 49°17' W 000°15'2 2.3
2014-Oct-20 12:33N 49°20' W 000°14'1919.0
2014-Oct-20 11:33N 49°37' W 000°25'4119.4
2014-Oct-20 09:26N 50°16' W 000°47'1719.9
2014-Oct-20 08:33N 50°33' W 000°55'1716.9
2014-Oct-20 07:33N 50°48' W 001°07'1 1.0
2014-Oct-20 06:33N 50°49' W 001°06'0 0.2
2014-Oct-20 05:34N 50°49' W 001°06'1313.1
2014-Oct-20 04:34N 50°37' W 000°58'4611.6
2014-Oct-20 00:33N 49°53' W 000°32'1211.7
2014-Oct-19 23:33N 49°42' W 000°26'1211.8
2014-Oct-19 22:33N 49°31' W 000°20'1111.5
2014-Oct-19 21:33N 49°20' W 000°14'3 2.9
2014-Oct-19 20:33N 49°17' W 000°15'0 0.0
2014-Oct-19 19:33N 49°17' W 000°15'0 0.0
2014-Oct-19 18:33N 49°17' W 000°15'0 0.0
2014-Oct-19 17:33N 49°17' W 000°15'0 0.0
2014-Oct-19 16:33N 49°17' W 000°15'0 0.0
2014-Oct-19 15:33N 49°17' W 000°15'0 0.0
2014-Oct-19 14:33N 49°17' W 000°15'0 0.0
2014-Oct-19 13:33N 49°17' W 000°15'2 2.0
2014-Oct-19 12:33N 49°19' W 000°15'1918.8
2014-Oct-19 11:33N 49°37' W 000°24'2119.4
2014-Oct-19 10:30N 49°56' W 000°35'2219.6
2014-Oct-19 09:21N 50°17' W 000°47'1619.9
2014-Oct-19 08:33N 50°32' W 000°55'1716.6
2014-Oct-19 07:34N 50°47' W 001°07'1 1.4
2014-Oct-19 06:34N 50°49' W 001°06'0 0.1
2014-Oct-19 05:34N 50°49' W 001°06'1312.6
2014-Oct-19 04:34N 50°37' W 000°57'1110.9
2014-Oct-19 03:33N 50°28' W 000°48'1110.7
2014-Oct-19 02:33N 50°17' W 000°45'1110.8
2014-Oct-19 01:30N 50°07' W 000°40'1011.1
2014-Oct-19 00:33N 49°57' W 000°34'1111.4
2014-Oct-18 23:33N 49°46' W 000°28'1211.7
2014-Oct-18 22:33N 49°35' W 000°23'1211.9
2014-Oct-18 21:33N 49°24' W 000°16'6 6.5
2014-Oct-18 20:33N 49°17' W 000°15'0 0.0
2014-Oct-18 19:33N 49°17' W 000°15'1111.3
2014-Oct-18 18:33N 49°29' W 000°17'1918.6
2014-Oct-18 17:33N 49°46' W 000°28'3718.7
2014-Oct-18 15:33N 50°21' W 000°48'1918.9
2014-Oct-18 14:33N 50°39' W 000°57'1111.4
2014-Oct-18 13:33N 50°49' W 001°06'0 0.0
2014-Oct-18 12:33N 50°49' W 001°06'5 5.2
2014-Oct-18 11:33N 50°44' W 001°03'1818.2
2014-Oct-18 10:33N 50°27' W 000°51'2219.8
2014-Oct-18 09:27N 50°07' W 000°39'1819.6
2014-Oct-18 08:33N 49°51' W 000°29'1919.7
2014-Oct-18 07:34N 49°32' W 000°18'1515.1
2014-Oct-18 06:33N 49°17' W 000°15'0 0.0
2014-Oct-18 05:33N 49°17' W 000°15'0 0.1
2014-Oct-18 04:33N 49°17' W 000°15'1616.3
2014-Oct-18 03:33N 49°33' W 000°21'1212.1
2014-Oct-18 02:34N 49°45' W 000°27'1111.0
2014-Oct-18 01:33N 49°55' W 000°32'2814.2
2014-Oct-17 23:33N 50°21' W 000°48'1413.9
2014-Oct-17 22:33N 50°34' W 000°55'1413.8
2014-Oct-17 21:33N 50°47' W 001°06'2 2.0
2014-Oct-17 20:33N 50°49' W 001°06'0 0.0
2014-Oct-17 19:33N 50°49' W 001°06'0 0.0
2014-Oct-17 18:33N 50°49' W 001°06'3 3.5
2014-Oct-17 17:34N 50°45' W 001°05'1918.5
2014-Oct-17 16:33N 50°29' W 000°52'1615.9
2014-Oct-17 15:33N 50°14' W 000°43'1715.7
2014-Oct-17 14:28N 49°58' W 000°35'1516.1
2014-Oct-17 13:33N 49°44' W 000°28'1818.0
2014-Oct-17 12:33N 49°27' W 000°18'10 9.7
2014-Oct-17 11:33N 49°17' W 000°15'0 0.0
2014-Oct-17 10:33N 49°17' W 000°15'0 0.0
2014-Oct-17 09:33N 49°17' W 000°15'0 0.0
2014-Oct-17 08:33N 49°17' W 000°15'0 0.0
2014-Oct-17 07:33N 49°17' W 000°15'0 0.0
2014-Oct-17 06:33N 49°17' W 000°15'0 0.0
2014-Oct-17 05:33N 49°17' W 000°15'10 9.7
2014-Oct-17 04:33N 49°27' W 000°17'1312.7
2014-Oct-17 03:33N 49°39' W 000°24'1111.3
2014-Oct-17 02:33N 49°50' W 000°29'1711.6
2014-Oct-17 01:07N 50°05' W 000°37'1314.4
2014-Oct-17 00:12N 50°17' W 000°45'1015.4
2014-Oct-16 23:33N 50°27' W 000°51'1615.8
2014-Oct-16 22:34N 50°42' W 000°58'8 8.4
2014-Oct-16 21:34N 50°49' W 001°06'0 0.0
2014-Oct-16 20:33N 50°49' W 001°06'5 5.5
2014-Oct-16 19:33N 50°44' W 001°03'1616.1
2014-Oct-16 18:33N 50°29' W 000°52'4318.6
2014-Oct-16 16:16N 49°49' W 000°28'1318.9
2014-Oct-16 15:33N 49°37' W 000°22'1818.2
2014-Oct-16 14:33N 49°19' W 000°15'1 1.5
2014-Oct-16 13:33N 49°17' W 000°15'2 2.1
2014-Oct-16 12:33N 49°19' W 000°14'2120.7
2014-Oct-16 11:33N 49°39' W 000°25'4318.7
2014-Oct-16 09:15N 50°20' W 000°48'1318.8
2014-Oct-16 08:33N 50°32' W 000°55'1817.5
2014-Oct-16 07:33N 50°48' W 001°07'1 1.1
2014-Oct-16 06:33N 50°49' W 001°06'0 0.1
2014-Oct-16 05:34N 50°49' W 001°06'1212.0
2014-Oct-16 04:33N 50°38' W 000°58'1111.4
2014-Oct-16 03:33N 50°27' W 000°52'4611.4
2014-Oct-15 23:33N 49°45' W 000°26'1211.9
2014-Oct-15 22:33N 49°33' W 000°21'1212.1
2014-Oct-15 21:33N 49°22' W 000°15'4 4.4
2014-Oct-15 20:33N 49°17' W 000°15'0 0.0
2014-Oct-15 19:33N 49°17' W 000°15'1212.0
2014-Oct-15 18:33N 49°29' W 000°17'2020.0
2014-Oct-15 17:33N 49°47' W 000°30'3818.9
2014-Oct-15 15:32N 50°23' W 000°50'1818.7
2014-Oct-15 14:33N 50°40' W 001°00'9 9.1
2014-Oct-15 13:33N 50°49' W 001°06'0 0.1
2014-Oct-15 12:33N 50°49' W 001°06'7 7.0
2014-Oct-15 11:33N 50°43' W 000°60'1615.5
2014-Oct-15 10:33N 50°28' W 000°53'4319.2
2014-Oct-15 08:19N 49°48' W 000°30'1519.6
2014-Oct-15 07:33N 49°34' W 000°22'1716.9
2014-Oct-15 06:33N 49°17' W 000°15'0 0.0
2014-Oct-15 05:33N 49°17' W 000°15'0 0.1
2014-Oct-15 04:33N 49°17' W 000°15'1414.0
2014-Oct-15 03:33N 49°31' W 000°20'1212.0
2014-Oct-15 02:33N 49°42' W 000°27'3915.4
2014-Oct-15 00:03N 50°19' W 000°45'817.2
2014-Oct-14 23:33N 50°27' W 000°49'1717.0
2014-Oct-14 22:33N 50°43' W 000°59'7 7.4
2014-Oct-14 21:33N 50°49' W 001°06'0 0.0
2014-Oct-14 20:33N 50°49' W 001°06'4 4.4
2014-Oct-14 19:34N 50°44' W 001°04'1717.4
2014-Oct-14 18:33N 50°29' W 000°52'3818.9
2014-Oct-14 16:33N 49°53' W 000°32'1919.3
2014-Oct-14 15:34N 49°35' W 000°22'1817.7
2014-Oct-14 14:33N 49°18' W 000°15'1 0.6
2014-Oct-14 13:33N 49°17' W 000°15'2 1.9
2014-Oct-14 12:33N 49°19' W 000°15'2019.6
2014-Oct-14 11:33N 49°38' W 000°22'4719.9
2014-Oct-14 09:13N 50°22' W 000°48'1319.3
2014-Oct-14 08:33N 50°33' W 000°55'1616.3
2014-Oct-14 07:34N 50°48' W 001°07'1 0.9
2014-Oct-14 06:34N 50°49' W 001°06'0 0.1
2014-Oct-14 05:34N 50°49' W 001°06'1212.3
2014-Oct-14 04:33N 50°37' W 000°60'5112.8
2014-Oct-14 00:33N 49°48' W 000°37'9 9.3
2014-Oct-13 23:33N 49°41' W 000°27'1010.1
2014-Oct-13 22:33N 49°32' W 000°20'1111.1
2014-Oct-13 21:33N 49°22' W 000°15'4 4.2
2014-Oct-13 20:33N 49°17' W 000°15'0 0.0
2014-Oct-13 19:33N 49°17' W 000°15'0 0.0
2014-Oct-13 18:33N 49°17' W 000°15'0 0.0
2014-Oct-13 17:33N 49°17' W 000°15'0 0.0
2014-Oct-13 16:33N 49°17' W 000°15'0 0.0
2014-Oct-13 15:34N 49°17' W 000°15'0 0.0
2014-Oct-13 14:33N 49°17' W 000°15'0 0.0
2014-Oct-13 13:33N 49°17' W 000°15'2 1.9
2014-Oct-13 12:33N 49°19' W 000°15'1919.1
2014-Oct-13 11:33N 49°38' W 000°22'4919.7
2014-Oct-13 09:05N 50°23' W 000°48'1019.5
2014-Oct-13 08:33N 50°33' W 000°54'1616.4
2014-Oct-13 07:33N 50°47' W 001°07'1 1.5
2014-Oct-13 06:33N 50°49' W 001°06'0 0.2
2014-Oct-13 05:33N 50°49' W 001°06'1313.0
2014-Oct-13 04:33N 50°37' W 000°59'4611.4
2014-Oct-13 00:32N 49°55' W 000°30'1110.9
2014-Oct-12 23:33N 49°44' W 000°25'1111.2
2014-Oct-12 22:33N 49°34' W 000°21'1111.2
2014-Oct-12 21:33N 49°23' W 000°16'6 5.6
2014-Oct-12 20:33N 49°17' W 000°15'0 0.0
2014-Oct-12 19:34N 49°17' W 000°15'0 0.0
2014-Oct-12 18:33N 49°17' W 000°15'0 0.0
2014-Oct-12 17:34N 49°17' W 000°15'0 0.0
2014-Oct-12 16:33N 49°17' W 000°15'0 0.0
2014-Oct-12 15:33N 49°17' W 000°15'0 0.0
2014-Oct-12 14:33N 49°17' W 000°15'0 0.0
2014-Oct-12 13:33N 49°17' W 000°15'2 1.6
2014-Oct-12 12:34N 49°19' W 000°15'2019.9
2014-Oct-12 11:34N 49°38' W 000°24'5317.8
2014-Oct-12 08:33N 50°28' W 000°53'1817.8
2014-Oct-12 07:34N 50°44' W 001°04'5 4.6
2014-Oct-12 06:33N 50°49' W 001°06'0 0.2
2014-Oct-12 05:33N 50°49' W 001°06'1212.4
2014-Oct-12 04:33N 50°37' W 000°58'1111.0
2014-Oct-12 03:33N 50°27' W 000°52'3811.2
2014-Oct-12 00:10N 49°51' W 000°33'710.5
2014-Oct-11 23:32N 49°45' W 000°28'1111.0
2014-Oct-11 22:33N 49°35' W 000°22'1211.9
2014-Oct-11 21:33N 49°24' W 000°16'7 6.6
2014-Oct-11 20:33N 49°17' W 000°15'0 0.0
2014-Oct-11 19:33N 49°17' W 000°15'1211.8
2014-Oct-11 18:33N 49°29' W 000°17'6320.5
2014-Oct-11 15:30N 50°28' W 000°53'1919.8
2014-Oct-11 14:33N 50°45' W 001°05'4 4.2
2014-Oct-11 13:33N 50°49' W 001°06'0 0.0
2014-Oct-11 12:33N 50°49' W 001°06'3 3.2
2014-Oct-11 11:33N 50°45' W 001°05'6020.0
2014-Oct-11 08:33N 49°49' W 000°32'2019.7
2014-Oct-11 07:34N 49°31' W 000°21'1414.1
2014-Oct-11 06:33N 49°17' W 000°15'0 0.0
2014-Oct-11 05:33N 49°17' W 000°15'0 0.2
2014-Oct-11 04:32N 49°17' W 000°15'1313.6
2014-Oct-11 03:33N 49°30' W 000°19'1312.7
2014-Oct-11 02:34N 49°43' W 000°24'4012.0
2014-Oct-10 23:11N 50°21' W 000°45'  
Track history (hours):
 
Tides and Currents Weather Stations Pressure Air Temp Water Temp Dewpoint Dewpoint Depression Visibility Wind Speed Wind Dir Waves Ship Positions

Mont Saint Michel

Last reported at 2014-Oct-20 22:33 UTC. Time now 2014-Oct-20 22:50 UTC.
Position N 49°34' W 000°20'.

Length 173 m; beam 29 m.

Type: Ship. MMSI: 227023100.

Date/timePositionNaut miles runAvg speedWind from/ knotsBaromVisibWave heightAir tempDewpointWater temp
2014-Oct-20 22:33N 49°34' W 000°20'1111.2
2014-Oct-20 21:34N 49°23' W 000°15'6 5.6
2014-Oct-20 20:33N 49°17' W 000°15'0 0.0
2014-Oct-20 19:33N 49°17' W 000°15'0 0.0
2014-Oct-20 18:34N 49°17' W 000°15'0 0.0
2014-Oct-20 17:33N 49°17' W 000°15'0 0.0
2014-Oct-20 16:33N 49°17' W 000°15'0 0.0
2014-Oct-20 15:33N 49°17' W 000°15'0 0.0
2014-Oct-20 14:34N 49°17' W 000°15'0 0.0
2014-Oct-20 13:33N 49°17' W 000°15'2 2.3
2014-Oct-20 12:33N 49°20' W 000°14'1919.0
2014-Oct-20 11:33N 49°37' W 000°25'4119.4
2014-Oct-20 09:26N 50°16' W 000°47'1719.9
2014-Oct-20 08:33N 50°33' W 000°55'1716.9
2014-Oct-20 07:33N 50°48' W 001°07'1 1.0
2014-Oct-20 06:33N 50°49' W 001°06'0 0.2
2014-Oct-20 05:34N 50°49' W 001°06'1313.1
2014-Oct-20 04:34N 50°37' W 000°58'4611.6
2014-Oct-20 00:33N 49°53' W 000°32'1211.7
2014-Oct-19 23:33N 49°42' W 000°26'1211.8
2014-Oct-19 22:33N 49°31' W 000°20'1111.5
2014-Oct-19 21:33N 49°20' W 000°14'3 2.9
2014-Oct-19 20:33N 49°17' W 000°15'0 0.0
2014-Oct-19 19:33N 49°17' W 000°15'0 0.0
2014-Oct-19 18:33N 49°17' W 000°15'0 0.0
2014-Oct-19 17:33N 49°17' W 000°15'0 0.0
2014-Oct-19 16:33N 49°17' W 000°15'0 0.0
2014-Oct-19 15:33N 49°17' W 000°15'0 0.0
2014-Oct-19 14:33N 49°17' W 000°15'0 0.0
2014-Oct-19 13:33N 49°17' W 000°15'2 2.0
2014-Oct-19 12:33N 49°19' W 000°15'1918.8
2014-Oct-19 11:33N 49°37' W 000°24'2119.4
2014-Oct-19 10:30N 49°56' W 000°35'2219.6
2014-Oct-19 09:21N 50°17' W 000°47'1619.9
2014-Oct-19 08:33N 50°32' W 000°55'1716.6
2014-Oct-19 07:34N 50°47' W 001°07'1 1.4
2014-Oct-19 06:34N 50°49' W 001°06'0 0.1
2014-Oct-19 05:34N 50°49' W 001°06'1312.6
2014-Oct-19 04:34N 50°37' W 000°57'1110.9
2014-Oct-19 03:33N 50°28' W 000°48'1110.7
2014-Oct-19 02:33N 50°17' W 000°45'1110.8
2014-Oct-19 01:30N 50°07' W 000°40'1011.1
2014-Oct-19 00:33N 49°57' W 000°34'1111.4
2014-Oct-18 23:33N 49°46' W 000°28'1211.7
2014-Oct-18 22:33N 49°35' W 000°23'1211.9
2014-Oct-18 21:33N 49°24' W 000°16'6 6.5
2014-Oct-18 20:33N 49°17' W 000°15'0 0.0
2014-Oct-18 19:33N 49°17' W 000°15'1111.3
2014-Oct-18 18:33N 49°29' W 000°17'1918.6
2014-Oct-18 17:33N 49°46' W 000°28'3718.7
2014-Oct-18 15:33N 50°21' W 000°48'1918.9
2014-Oct-18 14:33N 50°39' W 000°57'1111.4
2014-Oct-18 13:33N 50°49' W 001°06'0 0.0
2014-Oct-18 12:33N 50°49' W 001°06'5 5.2
2014-Oct-18 11:33N 50°44' W 001°03'1818.2
2014-Oct-18 10:33N 50°27' W 000°51'2219.8
2014-Oct-18 09:27N 50°07' W 000°39'1819.6
2014-Oct-18 08:33N 49°51' W 000°29'1919.7
2014-Oct-18 07:34N 49°32' W 000°18'1515.1
2014-Oct-18 06:33N 49°17' W 000°15'0 0.0
2014-Oct-18 05:33N 49°17' W 000°15'0 0.1
2014-Oct-18 04:33N 49°17' W 000°15'1616.3
2014-Oct-18 03:33N 49°33' W 000°21'1212.1
2014-Oct-18 02:34N 49°45' W 000°27'1111.0
2014-Oct-18 01:33N 49°55' W 000°32'2814.2
2014-Oct-17 23:33N 50°21' W 000°48'1413.9
2014-Oct-17 22:33N 50°34' W 000°55'1413.8
2014-Oct-17 21:33N 50°47' W 001°06'2 2.0
2014-Oct-17 20:33N 50°49' W 001°06'0 0.0
2014-Oct-17 19:33N 50°49' W 001°06'0 0.0
2014-Oct-17 18:33N 50°49' W 001°06'3 3.5
2014-Oct-17 17:34N 50°45' W 001°05'1918.5
2014-Oct-17 16:33N 50°29' W 000°52'1615.9
2014-Oct-17 15:33N 50°14' W 000°43'1715.7
2014-Oct-17 14:28N 49°58' W 000°35'1516.1
2014-Oct-17 13:33N 49°44' W 000°28'1818.0
2014-Oct-17 12:33N 49°27' W 000°18'10 9.7
2014-Oct-17 11:33N 49°17' W 000°15'0 0.0
2014-Oct-17 10:33N 49°17' W 000°15'0 0.0
2014-Oct-17 09:33N 49°17' W 000°15'0 0.0
2014-Oct-17 08:33N 49°17' W 000°15'0 0.0
2014-Oct-17 07:33N 49°17' W 000°15'0 0.0
2014-Oct-17 06:33N 49°17' W 000°15'0 0.0
2014-Oct-17 05:33N 49°17' W 000°15'10 9.7
2014-Oct-17 04:33N 49°27' W 000°17'1312.7
2014-Oct-17 03:33N 49°39' W 000°24'1111.3
2014-Oct-17 02:33N 49°50' W 000°29'1711.6
2014-Oct-17 01:07N 50°05' W 000°37'1314.4
2014-Oct-17 00:12N 50°17' W 000°45'1015.4
2014-Oct-16 23:33N 50°27' W 000°51'1615.8
2014-Oct-16 22:34N 50°42' W 000°58'8 8.4
2014-Oct-16 21:34N 50°49' W 001°06'0 0.0
2014-Oct-16 20:33N 50°49' W 001°06'5 5.5
2014-Oct-16 19:33N 50°44' W 001°03'1616.1
2014-Oct-16 18:33N 50°29' W 000°52'4318.6
2014-Oct-16 16:16N 49°49' W 000°28'1318.9
2014-Oct-16 15:33N 49°37' W 000°22'1818.2
2014-Oct-16 14:33N 49°19' W 000°15'1 1.5
2014-Oct-16 13:33N 49°17' W 000°15'2 2.1
2014-Oct-16 12:33N 49°19' W 000°14'2120.7
2014-Oct-16 11:33N 49°39' W 000°25'4318.7
2014-Oct-16 09:15N 50°20' W 000°48'1318.8
2014-Oct-16 08:33N 50°32' W 000°55'1817.5
2014-Oct-16 07:33N 50°48' W 001°07'1 1.1
2014-Oct-16 06:33N 50°49' W 001°06'0 0.1
2014-Oct-16 05:34N 50°49' W 001°06'1212.0
2014-Oct-16 04:33N 50°38' W 000°58'1111.4
2014-Oct-16 03:33N 50°27' W 000°52'4611.4
2014-Oct-15 23:33N 49°45' W 000°26'1211.9
2014-Oct-15 22:33N 49°33' W 000°21'1212.1
2014-Oct-15 21:33N 49°22' W 000°15'4 4.4
2014-Oct-15 20:33N 49°17' W 000°15'0 0.0
2014-Oct-15 19:33N 49°17' W 000°15'1212.0
2014-Oct-15 18:33N 49°29' W 000°17'2020.0
2014-Oct-15 17:33N 49°47' W 000°30'3818.9
2014-Oct-15 15:32N 50°23' W 000°50'1818.7
2014-Oct-15 14:33N 50°40' W 001°00'9 9.1
2014-Oct-15 13:33N 50°49' W 001°06'0 0.1
2014-Oct-15 12:33N 50°49' W 001°06'7 7.0
2014-Oct-15 11:33N 50°43' W 000°60'1615.5
2014-Oct-15 10:33N 50°28' W 000°53'4319.2
2014-Oct-15 08:19N 49°48' W 000°30'1519.6
2014-Oct-15 07:33N 49°34' W 000°22'1716.9
2014-Oct-15 06:33N 49°17' W 000°15'0 0.0
2014-Oct-15 05:33N 49°17' W 000°15'0 0.1
2014-Oct-15 04:33N 49°17' W 000°15'1414.0
2014-Oct-15 03:33N 49°31' W 000°20'1212.0
2014-Oct-15 02:33N 49°42' W 000°27'3915.4
2014-Oct-15 00:03N 50°19' W 000°45'817.2
2014-Oct-14 23:33N 50°27' W 000°49'1717.0
2014-Oct-14 22:33N 50°43' W 000°59'7 7.4
2014-Oct-14 21:33N 50°49' W 001°06'0 0.0
2014-Oct-14 20:33N 50°49' W 001°06'4 4.4
2014-Oct-14 19:34N 50°44' W 001°04'1717.4
2014-Oct-14 18:33N 50°29' W 000°52'3818.9
2014-Oct-14 16:33N 49°53' W 000°32'1919.3
2014-Oct-14 15:34N 49°35' W 000°22'1817.7
2014-Oct-14 14:33N 49°18' W 000°15'1 0.6
2014-Oct-14 13:33N 49°17' W 000°15'2 1.9
2014-Oct-14 12:33N 49°19' W 000°15'2019.6
2014-Oct-14 11:33N 49°38' W 000°22'4719.9
2014-Oct-14 09:13N 50°22' W 000°48'1319.3
2014-Oct-14 08:33N 50°33' W 000°55'1616.3
2014-Oct-14 07:34N 50°48' W 001°07'1 0.9
2014-Oct-14 06:34N 50°49' W 001°06'0 0.1
2014-Oct-14 05:34N 50°49' W 001°06'1212.3
2014-Oct-14 04:33N 50°37' W 000°60'5112.8
2014-Oct-14 00:33N 49°48' W 000°37'9 9.3
2014-Oct-13 23:33N 49°41' W 000°27'1010.1
2014-Oct-13 22:33N 49°32' W 000°20'1111.1
2014-Oct-13 21:33N 49°22' W 000°15'4 4.2
2014-Oct-13 20:33N 49°17' W 000°15'0 0.0
2014-Oct-13 19:33N 49°17' W 000°15'0 0.0
2014-Oct-13 18:33N 49°17' W 000°15'0 0.0
2014-Oct-13 17:33N 49°17' W 000°15'0 0.0
2014-Oct-13 16:33N 49°17' W 000°15'0 0.0
2014-Oct-13 15:34N 49°17' W 000°15'0 0.0
2014-Oct-13 14:33N 49°17' W 000°15'0 0.0
2014-Oct-13 13:33N 49°17' W 000°15'2 1.9
2014-Oct-13 12:33N 49°19' W 000°15'1919.1
2014-Oct-13 11:33N 49°38' W 000°22'4919.7
2014-Oct-13 09:05N 50°23' W 000°48'1019.5
2014-Oct-13 08:33N 50°33' W 000°54'1616.4
2014-Oct-13 07:33N 50°47' W 001°07'1 1.5
2014-Oct-13 06:33N 50°49' W 001°06'0 0.2
2014-Oct-13 05:33N 50°49' W 001°06'1313.0
2014-Oct-13 04:33N 50°37' W 000°59'4611.4
2014-Oct-13 00:32N 49°55' W 000°30'1110.9
2014-Oct-12 23:33N 49°44' W 000°25'1111.2
2014-Oct-12 22:33N 49°34' W 000°21'1111.2
2014-Oct-12 21:33N 49°23' W 000°16'6 5.6
2014-Oct-12 20:33N 49°17' W 000°15'0 0.0
2014-Oct-12 19:34N 49°17' W 000°15'0 0.0
2014-Oct-12 18:33N 49°17' W 000°15'0 0.0
2014-Oct-12 17:34N 49°17' W 000°15'0 0.0
2014-Oct-12 16:33N 49°17' W 000°15'0 0.0
2014-Oct-12 15:33N 49°17' W 000°15'0 0.0
2014-Oct-12 14:33N 49°17' W 000°15'0 0.0
2014-Oct-12 13:33N 49°17' W 000°15'2 1.6
2014-Oct-12 12:34N 49°19' W 000°15'2019.9
2014-Oct-12 11:34N 49°38' W 000°24'5317.8
2014-Oct-12 08:33N 50°28' W 000°53'1817.8
2014-Oct-12 07:34N 50°44' W 001°04'5 4.6
2014-Oct-12 06:33N 50°49' W 001°06'0 0.2
2014-Oct-12 05:33N 50°49' W 001°06'1212.4
2014-Oct-12 04:33N 50°37' W 000°58'1111.0
2014-Oct-12 03:33N 50°27' W 000°52'3811.2
2014-Oct-12 00:10N 49°51' W 000°33'710.5
2014-Oct-11 23:32N 49°45' W 000°28'1111.0
2014-Oct-11 22:33N 49°35' W 000°22'1211.9
2014-Oct-11 21:33N 49°24' W 000°16'7 6.6
2014-Oct-11 20:33N 49°17' W 000°15'0 0.0
2014-Oct-11 19:33N 49°17' W 000°15'1211.8
2014-Oct-11 18:33N 49°29' W 000°17'6320.5
2014-Oct-11 15:30N 50°28' W 000°53'1919.8
2014-Oct-11 14:33N 50°45' W 001°05'4 4.2
2014-Oct-11 13:33N 50°49' W 001°06'0 0.0
2014-Oct-11 12:33N 50°49' W 001°06'3 3.2
2014-Oct-11 11:33N 50°45' W 001°05'6020.0
2014-Oct-11 08:33N 49°49' W 000°32'2019.7
2014-Oct-11 07:34N 49°31' W 000°21'1414.1
2014-Oct-11 06:33N 49°17' W 000°15'0 0.0
2014-Oct-11 05:33N 49°17' W 000°15'0 0.2
2014-Oct-11 04:32N 49°17' W 000°15'1313.6
2014-Oct-11 03:33N 49°30' W 000°19'1312.7
2014-Oct-11 02:34N 49°43' W 000°24'4012.0
2014-Oct-10 23:11N 50°21' W 000°45'  

Dump ship's entire track history